createdAt,value
2018-09-13T00:00:55.476Z,15.48
2018-09-13T00:03:23.888Z,15.49
2018-09-13T00:05:52.965Z,15.48
2018-09-13T00:08:21.352Z,15.46
2018-09-13T00:10:49.840Z,15.50
2018-09-13T00:13:18.245Z,15.50
2018-09-13T00:15:46.661Z,15.40
2018-09-13T00:18:15.310Z,15.33
2018-09-13T00:20:43.719Z,15.28
2018-09-13T00:23:12.132Z,15.22
2018-09-13T00:25:40.685Z,15.22
2018-09-13T00:28:09.110Z,15.17
2018-09-13T00:30:37.519Z,15.16
2018-09-13T00:33:06.106Z,15.14
2018-09-13T00:35:34.465Z,15.08
2018-09-13T00:38:02.916Z,15.14
2018-09-13T00:40:31.417Z,15.12
2018-09-13T00:42:59.804Z,15.07
2018-09-13T00:45:28.209Z,15.07
2018-09-13T00:47:56.726Z,15.06
2018-09-13T00:50:25.123Z,15.01
2018-09-13T00:52:53.489Z,14.93
2018-09-13T00:55:22.207Z,14.96
2018-09-13T00:57:50.654Z,14.94
2018-09-13T01:00:19.052Z,14.90
2018-09-13T01:02:47.475Z,14.91
2018-09-13T01:05:15.853Z,14.97
2018-09-13T01:07:44.701Z,15.00
2018-09-13T01:10:14.124Z,14.95
2018-09-13T01:12:42.536Z,14.86
2018-09-13T01:15:10.932Z,14.87
2018-09-13T01:17:39.543Z,14.89
2018-09-13T01:20:07.987Z,14.89
2018-09-13T01:22:36.437Z,14.80
2018-09-13T01:25:04.994Z,14.83
2018-09-13T01:27:33.411Z,14.83
2018-09-13T01:30:01.840Z,14.87
2018-09-13T01:32:30.256Z,14.95
2018-09-13T01:34:58.662Z,14.99
2018-09-13T01:37:27.120Z,14.93
2018-09-13T01:39:55.500Z,14.94
2018-09-13T01:42:23.914Z,14.91
2018-09-13T01:44:52.288Z,14.96
2018-09-13T01:47:20.926Z,14.97
2018-09-13T01:49:49.296Z,14.99
2018-09-13T01:52:17.717Z,14.92
2018-09-13T01:54:46.118Z,14.95
2018-09-13T01:57:14.502Z,14.95
2018-09-13T01:59:42.931Z,14.97
2018-09-13T02:02:11.444Z,14.95
2018-09-13T02:04:39.861Z,14.93
2018-09-13T02:07:08.284Z,14.90
2018-09-13T02:09:36.695Z,14.89
2018-09-13T02:12:05.114Z,14.85
2018-09-13T02:14:33.534Z,14.86
2018-09-13T02:17:01.931Z,14.81
2018-09-13T02:19:30.398Z,14.81
2018-09-13T02:21:58.783Z,14.79
2018-09-13T02:24:27.217Z,14.80
2018-09-13T02:26:55.584Z,14.74
2018-09-13T02:29:24.977Z,14.74
2018-09-13T02:31:53.329Z,14.74
2018-09-13T02:34:22.532Z,14.70
2018-09-13T02:36:50.922Z,14.66
2018-09-13T02:39:20.197Z,14.55
2018-09-13T02:41:49.459Z,14.61
2018-09-13T02:44:17.907Z,14.62
2018-09-13T02:46:46.377Z,14.59
2018-09-13T02:49:14.899Z,14.57
2018-09-13T02:51:43.298Z,14.52
2018-09-13T02:54:11.683Z,14.52
2018-09-13T02:56:40.168Z,14.41
2018-09-13T02:59:08.580Z,14.47
2018-09-13T03:01:37.048Z,14.53
2018-09-13T03:04:05.449Z,14.58
2018-09-13T03:06:34.023Z,14.61
2018-09-13T03:09:02.453Z,14.62
2018-09-13T03:11:32.394Z,14.66
2018-09-13T03:14:00.787Z,14.65
2018-09-13T03:16:29.162Z,14.62
2018-09-13T03:18:57.581Z,14.56
2018-09-13T03:21:25.943Z,14.56
2018-09-13T03:23:54.381Z,14.58
2018-09-13T03:26:22.772Z,14.59
2018-09-13T03:28:51.256Z,14.62
2018-09-13T03:31:19.696Z,14.64
2018-09-13T03:33:48.169Z,14.64
2018-09-13T03:36:16.555Z,14.54
2018-09-13T03:38:44.968Z,14.49
2018-09-13T03:41:13.384Z,14.43
2018-09-13T03:43:42.955Z,14.44
2018-09-13T03:46:11.569Z,14.39
2018-09-13T03:48:40.655Z,14.38
2018-09-13T03:51:10.053Z,14.40
2018-09-13T03:53:39.168Z,14.37
2018-09-13T03:56:07.609Z,14.30
2018-09-13T03:58:36.009Z,14.27
2018-09-13T04:01:04.501Z,14.21
2018-09-13T04:03:32.950Z,14.24
2018-09-13T04:06:01.424Z,14.14
2018-09-13T04:08:31.052Z,14.20
2018-09-13T04:10:59.448Z,14.21
2018-09-13T04:13:27.878Z,14.21
2018-09-13T04:15:56.284Z,14.24
2018-09-13T04:18:24.690Z,14.30
2018-09-13T04:20:53.661Z,14.36
2018-09-13T04:23:22.060Z,14.36
2018-09-13T04:25:50.688Z,14.32
2018-09-13T04:28:19.152Z,14.30
2018-09-13T04:30:47.587Z,14.30
2018-09-13T04:33:16.030Z,14.29
2018-09-13T04:35:44.466Z,14.30
2018-09-13T04:38:12.846Z,14.22
2018-09-13T04:40:41.270Z,14.11
2018-09-13T04:43:09.687Z,14.06
2018-09-13T04:45:38.097Z,14.02
2018-09-13T04:48:06.559Z,14.07
2018-09-13T04:50:34.976Z,14.03
2018-09-13T04:53:03.443Z,14.03
2018-09-13T04:55:33.014Z,13.99
2018-09-13T04:58:01.419Z,14.00
2018-09-13T05:00:29.824Z,14.06
2018-09-13T05:02:58.804Z,14.14
2018-09-13T05:05:27.229Z,14.13
2018-09-13T05:07:55.698Z,14.13
2018-09-13T05:10:24.108Z,14.13
2018-09-13T05:12:53.179Z,14.15
2018-09-13T05:15:21.510Z,14.21
2018-09-13T05:17:50.583Z,14.17
2018-09-13T05:20:18.999Z,14.10
2018-09-13T05:22:47.397Z,14.11
2018-09-13T05:25:15.876Z,14.18
2018-09-13T05:27:44.253Z,14.21
2018-09-13T05:30:12.723Z,14.17
2018-09-13T05:32:41.134Z,14.22
2018-09-13T05:35:09.549Z,14.13
2018-09-13T05:37:38.224Z,14.09
2018-09-13T05:40:06.680Z,14.14
2018-09-13T05:42:35.071Z,14.18
2018-09-13T05:45:03.591Z,14.08
2018-09-13T05:47:32.087Z,14.05
2018-09-13T05:50:00.617Z,14.08
2018-09-13T05:52:28.976Z,14.08
2018-09-13T05:54:57.408Z,14.09
2018-09-13T05:57:26.849Z,14.11
2018-09-13T05:59:55.308Z,14.13
2018-09-13T06:02:23.692Z,14.10
2018-09-13T06:04:52.105Z,14.08
2018-09-13T06:07:20.508Z,14.02
2018-09-13T06:09:48.924Z,14.06
2018-09-13T06:12:17.357Z,14.10
2018-09-13T06:14:45.769Z,14.05
2018-09-13T06:17:14.168Z,14.10
2018-09-13T06:19:42.688Z,14.17
2018-09-13T06:22:11.047Z,14.17
2018-09-13T06:24:39.458Z,14.14
2018-09-13T06:27:07.976Z,14.13
2018-09-13T06:29:36.602Z,14.15
2018-09-13T06:32:05.048Z,14.20
2018-09-13T06:34:33.478Z,14.23
2018-09-13T06:37:02.126Z,14.13
2018-09-13T06:39:30.565Z,14.07
2018-09-13T06:41:58.980Z,14.12
2018-09-13T06:44:27.387Z,14.16
2018-09-13T06:46:55.773Z,14.15
2018-09-13T06:49:24.177Z,14.13
2018-09-13T06:51:52.584Z,14.16
2018-09-13T06:54:21.025Z,14.22
2018-09-13T06:56:49.459Z,14.19
2018-09-13T06:59:17.879Z,14.18
2018-09-13T07:01:46.315Z,14.21
2018-09-13T07:04:14.694Z,14.25
2018-09-13T07:06:43.137Z,14.35
2018-09-13T07:09:13.874Z,14.12
2018-09-13T07:11:42.677Z,14.41
2018-09-13T07:14:11.090Z,14.47
2018-09-13T07:16:39.489Z,14.41
2018-09-13T07:19:07.888Z,14.47
2018-09-13T07:21:36.408Z,14.47
2018-09-13T07:24:05.098Z,14.49
2018-09-13T07:26:33.558Z,14.44
2018-09-13T07:29:01.942Z,14.44
2018-09-13T07:31:30.360Z,14.40
2018-09-13T07:33:58.769Z,14.44
2018-09-13T07:36:27.144Z,14.40
2018-09-13T07:38:55.576Z,14.40
2018-09-13T07:41:23.969Z,14.36
2018-09-13T07:43:52.380Z,14.38
2018-09-13T07:46:20.795Z,14.41
2018-09-13T07:48:49.203Z,14.47
2018-09-13T07:51:17.618Z,14.54
2018-09-13T07:53:46.054Z,14.62
2018-09-13T07:56:14.610Z,14.61
2018-09-13T07:58:43.032Z,14.55
2018-09-13T08:01:11.444Z,14.58
2018-09-13T08:03:39.869Z,14.61
2018-09-13T08:06:08.712Z,14.56
2018-09-13T08:08:37.117Z,14.49
2018-09-13T08:11:05.565Z,14.53
2018-09-13T08:13:33.962Z,14.54
2018-09-13T08:16:02.404Z,14.62
2018-09-13T08:18:30.763Z,14.69
2018-09-13T08:20:59.192Z,14.59
2018-09-13T08:23:27.741Z,14.67
2018-09-13T08:25:56.187Z,14.70
2018-09-13T08:28:24.550Z,14.73
2018-09-13T08:30:52.955Z,14.69
2018-09-13T08:33:21.395Z,14.79
2018-09-13T08:35:49.796Z,14.88
2018-09-13T08:38:18.228Z,14.77
2018-09-13T08:40:46.712Z,14.85
2018-09-13T08:43:15.159Z,14.90
2018-09-13T08:45:43.497Z,14.92
2018-09-13T08:48:11.992Z,14.97
2018-09-13T08:50:40.400Z,14.95
2018-09-13T08:53:08.876Z,14.90
2018-09-13T08:55:37.301Z,14.87
2018-09-13T08:58:05.820Z,14.89
2018-09-13T09:00:34.340Z,14.85
2018-09-13T09:03:02.774Z,14.81
2018-09-13T09:05:31.214Z,14.81
2018-09-13T09:07:59.603Z,14.85
2018-09-13T09:10:28.005Z,14.88
2018-09-13T09:12:56.408Z,14.84
2018-09-13T09:15:24.987Z,14.81
2018-09-13T09:17:53.377Z,14.82
2018-09-13T09:20:21.838Z,14.85
2018-09-13T09:22:50.196Z,14.84
2018-09-13T09:25:18.606Z,14.80
2018-09-13T09:27:46.988Z,14.92
2018-09-13T09:30:15.440Z,15.00
2018-09-13T09:32:44.497Z,15.03
2018-09-13T09:35:12.941Z,14.88
2018-09-13T09:37:41.358Z,14.81
2018-09-13T09:40:10.384Z,14.71
2018-09-13T09:42:38.808Z,14.78
2018-09-13T09:45:07.260Z,14.87
2018-09-13T09:47:35.645Z,14.89
2018-09-13T09:50:04.281Z,14.89
2018-09-13T09:52:32.792Z,14.79
2018-09-13T09:55:01.120Z,14.82
2018-09-13T09:57:29.546Z,14.97
2018-09-13T09:59:57.958Z,15.17
2018-09-13T10:02:26.352Z,15.17
2018-09-13T10:04:54.777Z,15.21
2018-09-13T10:07:23.248Z,15.25
2018-09-13T10:09:51.756Z,15.33
2018-09-13T10:12:20.281Z,15.42
2018-09-13T10:14:53.916Z,15.32
2018-09-13T10:17:27.635Z,15.19
2018-09-13T10:20:01.445Z,15.16
2018-09-13T10:22:35.014Z,15.20
2018-09-13T10:25:08.806Z,15.28
2018-09-13T10:27:42.508Z,15.32
2018-09-13T10:30:16.309Z,15.39
2018-09-13T10:32:50.087Z,15.40
2018-09-13T10:35:23.661Z,15.26
2018-09-13T10:37:57.387Z,15.32
2018-09-13T10:40:31.161Z,15.27
2018-09-13T10:43:04.949Z,15.27
2018-09-13T10:45:38.513Z,15.30
2018-09-13T10:48:12.215Z,15.40
2018-09-13T10:50:48.710Z,15.42
2018-09-13T10:53:22.533Z,15.50
2018-09-13T10:55:51.654Z,15.61
2018-09-13T10:58:20.058Z,15.71
2018-09-13T11:00:48.481Z,15.75
2018-09-13T11:03:16.896Z,15.78
2018-09-13T11:05:45.445Z,15.78
2018-09-13T11:08:14.017Z,15.73
2018-09-13T11:10:43.189Z,15.79
2018-09-13T11:13:19.830Z,15.86
2018-09-13T11:15:48.356Z,15.87
2018-09-13T11:18:16.767Z,15.74
2018-09-13T11:20:45.148Z,15.77
2018-09-13T11:23:13.551Z,15.82
2018-09-13T11:25:41.937Z,15.79
2018-09-13T11:28:10.316Z,15.70
2018-09-13T11:30:38.792Z,15.75
2018-09-13T11:33:07.341Z,15.77
2018-09-13T11:35:36.349Z,15.79
2018-09-13T11:38:04.788Z,15.79
2018-09-13T11:40:33.539Z,15.75
2018-09-13T11:43:01.726Z,15.87
2018-09-13T11:45:30.202Z,15.99
2018-09-13T11:47:58.629Z,16.01
2018-09-13T11:50:27.071Z,16.04
2018-09-13T11:52:55.989Z,16.08
2018-09-13T11:55:24.412Z,16.06
2018-09-13T11:57:52.872Z,16.08
2018-09-13T12:00:21.265Z,16.15
2018-09-13T12:02:49.661Z,16.14
2018-09-13T12:05:18.066Z,16.17
2018-09-13T12:07:46.502Z,16.20
2018-09-13T12:10:14.944Z,16.31
2018-09-13T12:12:43.400Z,16.36
2018-09-13T12:15:11.802Z,16.43
2018-09-13T12:17:41.070Z,16.57
2018-09-13T12:20:09.497Z,16.51
2018-09-13T12:22:37.977Z,16.45
2018-09-13T12:25:06.297Z,16.43
2018-09-13T12:27:35.272Z,16.51
2018-09-13T12:30:04.849Z,16.64
2018-09-13T12:32:33.975Z,16.82
2018-09-13T12:35:02.409Z,16.88
2018-09-13T12:37:30.864Z,16.88
2018-09-13T12:39:59.293Z,16.80
2018-09-13T12:42:27.732Z,16.82
2018-09-13T12:44:56.164Z,16.83
2018-09-13T12:47:25.439Z,16.78
2018-09-13T12:49:54.577Z,16.76
2018-09-13T12:52:22.990Z,16.80
2018-09-13T12:54:51.402Z,16.87
2018-09-13T12:57:19.817Z,16.88
2018-09-13T12:59:48.248Z,16.92
2018-09-13T13:02:16.728Z,16.94
2018-09-13T13:04:45.139Z,16.91
2018-09-13T13:07:13.577Z,16.99
2018-09-13T13:09:41.985Z,16.97
2018-09-13T13:12:10.451Z,17.11
2018-09-13T13:14:38.894Z,17.23
2018-09-13T13:17:07.331Z,17.31
2018-09-13T13:19:35.747Z,17.33
2018-09-13T13:22:04.345Z,17.39
2018-09-13T13:24:32.840Z,17.43
2018-09-13T13:27:01.347Z,17.43
2018-09-13T13:29:29.799Z,17.45
2018-09-13T13:31:58.251Z,17.56
2018-09-13T13:34:26.682Z,17.79
2018-09-13T13:36:55.209Z,17.88
2018-09-13T13:39:23.624Z,17.93
2018-09-13T13:41:52.072Z,17.85
2018-09-13T13:44:20.527Z,17.83
2018-09-13T13:46:49.339Z,17.89
2018-09-13T13:49:17.756Z,17.93
2018-09-13T13:51:46.195Z,18.03
2018-09-13T13:54:14.636Z,17.94
2018-09-13T13:56:43.188Z,17.65
2018-09-13T13:59:11.646Z,17.56
2018-09-13T14:01:40.061Z,17.51
2018-09-13T14:04:08.464Z,17.45
2018-09-13T14:06:36.997Z,17.45
2018-09-13T14:09:09.109Z,17.51
2018-09-13T14:11:37.503Z,17.56
2018-09-13T14:14:05.946Z,17.66
2018-09-13T14:16:34.897Z,17.70
2018-09-13T14:19:03.386Z,17.76
2018-09-13T14:21:31.876Z,17.78
2018-09-13T14:24:00.365Z,17.85
2018-09-13T14:26:28.781Z,17.89
2018-09-13T14:28:57.263Z,17.83
2018-09-13T14:31:26.310Z,17.73
2018-09-13T14:33:54.745Z,17.68
2018-09-13T14:36:23.126Z,17.67
2018-09-13T14:38:51.836Z,17.60
2018-09-13T14:41:20.301Z,17.53
2018-09-13T14:43:48.689Z,17.61
2018-09-13T14:46:17.136Z,17.70
2018-09-13T14:48:45.548Z,17.72
2018-09-13T14:51:14.204Z,17.68
2018-09-13T14:53:42.723Z,17.67
2018-09-13T14:56:11.263Z,17.73
2018-09-13T14:58:40.748Z,17.70
2018-09-13T15:01:09.295Z,17.59
2018-09-13T15:03:37.787Z,17.43
2018-09-13T15:06:06.277Z,17.38
2018-09-13T15:08:35.344Z,17.34
2018-09-13T15:11:04.166Z,17.30
2018-09-13T15:13:32.708Z,17.36
2018-09-13T15:16:01.140Z,17.39
2018-09-13T15:18:29.680Z,17.31
2018-09-13T15:20:58.117Z,17.33
2018-09-13T15:23:26.566Z,17.40
2018-09-13T15:25:55.021Z,17.51
2018-09-13T15:28:23.649Z,17.63
2018-09-13T15:30:52.068Z,17.70
2018-09-13T15:33:20.520Z,17.69
2018-09-13T15:35:48.925Z,17.64
2018-09-13T15:38:17.436Z,17.64
2018-09-13T15:40:45.873Z,17.53
2018-09-13T15:43:14.381Z,17.59
2018-09-13T15:45:42.788Z,17.58
2018-09-13T15:48:11.172Z,17.58
2018-09-13T15:50:39.585Z,17.61
2018-09-13T15:53:08.035Z,17.60
2018-09-13T15:55:36.421Z,17.57
2018-09-13T15:58:04.937Z,17.58
2018-09-13T16:00:33.354Z,17.62
2018-09-13T16:03:02.651Z,17.65
2018-09-13T16:05:31.106Z,17.66
2018-09-13T16:07:59.523Z,17.65
2018-09-13T16:10:27.945Z,17.60
2018-09-13T16:12:56.457Z,17.56
2018-09-13T16:15:24.824Z,17.58
2018-09-13T16:17:53.290Z,17.60
2018-09-13T16:20:21.758Z,17.62
2018-09-13T16:22:51.309Z,17.60
2018-09-13T16:25:19.730Z,17.59
2018-09-13T16:27:48.179Z,17.59
2018-09-13T16:30:16.633Z,17.55
2018-09-13T16:32:45.152Z,17.48
2018-09-13T16:35:13.770Z,17.43
2018-09-13T16:37:48.064Z,17.38
2018-09-13T16:40:21.754Z,17.37
2018-09-13T16:42:55.509Z,17.33
2018-09-13T16:45:29.573Z,17.20
2018-09-13T16:48:01.434Z,17.20
2018-09-13T16:50:29.914Z,17.18
2018-09-13T16:52:58.294Z,17.20
2018-09-13T16:55:26.782Z,17.13
2018-09-13T16:57:56.221Z,17.13
2018-09-13T17:00:25.528Z,17.12
2018-09-13T17:02:54.161Z,17.04
2018-09-13T17:05:22.650Z,17.00
2018-09-13T17:07:51.092Z,17.00
2018-09-13T17:10:19.540Z,17.03
2018-09-13T17:12:48.052Z,17.04
2018-09-13T17:15:16.847Z,17.04
2018-09-13T17:17:45.272Z,16.99
2018-09-13T17:20:13.730Z,16.93
2018-09-13T17:22:42.349Z,16.95
2018-09-13T17:25:10.761Z,16.95
2018-09-13T17:27:39.221Z,16.88
2018-09-13T17:30:07.686Z,16.86
2018-09-13T17:32:36.096Z,16.80
2018-09-13T17:35:04.620Z,16.78
2018-09-13T17:37:33.066Z,16.76
2018-09-13T17:40:01.541Z,16.71
2018-09-13T17:42:29.925Z,16.70
2018-09-13T17:44:58.420Z,16.63
2018-09-13T17:47:26.872Z,16.59
2018-09-13T17:49:55.290Z,16.60
2018-09-13T17:52:23.700Z,16.61
2018-09-13T17:54:52.150Z,16.60
2018-09-13T17:57:20.613Z,16.53
2018-09-13T17:59:49.087Z,16.46
2018-09-13T18:02:17.557Z,16.39
2018-09-13T18:04:47.398Z,16.33
2018-09-13T18:07:15.768Z,16.32
2018-09-13T18:09:44.188Z,16.26
2018-09-13T18:12:12.629Z,16.18
2018-09-13T18:14:41.061Z,16.12
2018-09-13T18:17:09.561Z,16.08
2018-09-13T18:19:38.028Z,16.09
2018-09-13T18:22:06.527Z,16.12
2018-09-13T18:24:34.876Z,16.14
2018-09-13T18:27:03.350Z,16.15
2018-09-13T18:29:31.761Z,16.08
2018-09-13T18:32:00.198Z,16.07
2018-09-13T18:34:28.616Z,16.08
2018-09-13T18:36:57.038Z,16.04
2018-09-13T18:39:25.466Z,15.98
2018-09-13T18:41:53.836Z,15.89
2018-09-13T18:44:22.284Z,15.82
2018-09-13T18:46:50.694Z,15.73
2018-09-13T18:49:19.111Z,15.72
2018-09-13T18:51:47.502Z,15.73
2018-09-13T18:54:15.979Z,15.66
2018-09-13T18:56:44.337Z,15.61
2018-09-13T18:59:12.805Z,15.68
2018-09-13T19:01:41.863Z,15.64
2018-09-13T19:04:10.324Z,15.56
2018-09-13T19:06:38.745Z,15.58
2018-09-13T19:09:09.401Z,15.59
2018-09-13T19:11:37.828Z,15.53
2018-09-13T19:14:06.401Z,15.43
2018-09-13T19:16:34.984Z,15.38
2018-09-13T19:19:03.412Z,15.33
2018-09-13T19:21:31.853Z,15.28
2018-09-13T19:24:00.281Z,15.17
2018-09-13T19:26:28.728Z,15.08
2018-09-13T19:28:57.106Z,15.02
2018-09-13T19:31:25.527Z,15.02
2018-09-13T19:33:54.030Z,14.98
2018-09-13T19:36:22.469Z,14.93
2018-09-13T19:38:50.943Z,14.99
2018-09-13T19:41:19.509Z,15.01
2018-09-13T19:43:48.055Z,15.04
2018-09-13T19:46:16.479Z,14.95
2018-09-13T19:48:44.997Z,14.87
2018-09-13T19:51:13.627Z,14.80
2018-09-13T19:53:42.044Z,14.75
2018-09-13T19:56:10.447Z,14.81
2018-09-13T19:58:38.876Z,14.80
2018-09-13T20:01:07.337Z,14.81
2018-09-13T20:03:35.853Z,14.78
2018-09-13T20:06:04.353Z,14.77
2018-09-13T20:08:32.777Z,14.75
2018-09-13T20:11:01.203Z,14.70
2018-09-13T20:13:29.631Z,14.58
2018-09-13T20:15:58.105Z,14.49
2018-09-13T20:18:26.583Z,14.37
2018-09-13T20:20:55.046Z,14.26
2018-09-13T20:23:23.449Z,14.23
2018-09-13T20:25:51.913Z,14.23
2018-09-13T20:28:20.340Z,14.18
2018-09-13T20:30:48.874Z,14.09
2018-09-13T20:33:17.276Z,14.03
2018-09-13T20:35:45.709Z,14.07
2018-09-13T20:38:14.132Z,14.06
2018-09-13T20:40:42.556Z,14.02
2018-09-13T20:43:10.944Z,13.89
2018-09-13T20:45:39.428Z,13.83
2018-09-13T20:48:07.917Z,13.87
2018-09-13T20:50:36.398Z,13.81
2018-09-13T20:53:04.813Z,13.81
2018-09-13T20:55:33.209Z,13.74
2018-09-13T20:58:02.458Z,13.69
2018-09-13T21:00:30.868Z,13.72
2018-09-13T21:02:59.289Z,13.68
2018-09-13T21:05:27.737Z,13.66
2018-09-13T21:07:56.415Z,13.65
2018-09-13T21:10:24.834Z,13.60
2018-09-13T21:12:53.282Z,13.57
2018-09-13T21:15:21.647Z,13.57
2018-09-13T21:17:50.114Z,13.62
2018-09-13T21:20:18.554Z,13.64
2018-09-13T21:22:46.979Z,13.62
2018-09-13T21:25:15.405Z,13.53
2018-09-13T21:27:43.829Z,13.47
2018-09-13T21:30:12.260Z,13.32
2018-09-13T21:32:40.711Z,13.27
2018-09-13T21:35:09.120Z,13.22
2018-09-13T21:37:37.528Z,13.21
2018-09-13T21:40:06.067Z,13.20
2018-09-13T21:42:34.519Z,13.20
2018-09-13T21:45:03.053Z,13.20
2018-09-13T21:47:31.593Z,13.13
2018-09-13T21:50:00.036Z,13.11
2018-09-13T21:52:29.397Z,13.13
2018-09-13T21:54:57.773Z,13.14
2018-09-13T21:57:26.237Z,13.04
2018-09-13T21:59:55.204Z,13.02
2018-09-13T22:02:23.645Z,13.04
2018-09-13T22:04:52.238Z,13.01
2018-09-13T22:07:20.673Z,12.92
2018-09-13T22:09:49.149Z,12.80
2018-09-13T22:12:17.606Z,12.74
2018-09-13T22:14:46.037Z,12.69
2018-09-13T22:17:15.829Z,12.69
2018-09-13T22:19:49.735Z,12.67
2018-09-13T22:22:18.186Z,12.57
2018-09-13T22:24:46.668Z,12.56
2018-09-13T22:27:15.081Z,12.60
2018-09-13T22:29:43.556Z,12.74
2018-09-13T22:32:11.997Z,12.86
2018-09-13T22:34:56.735Z,12.93
2018-09-13T22:37:25.199Z,12.89
2018-09-13T22:39:53.659Z,12.78
2018-09-13T22:42:22.093Z,12.65
2018-09-13T22:44:50.625Z,12.67
2018-09-13T22:47:19.009Z,12.70
2018-09-13T22:49:47.429Z,12.72
2018-09-13T22:52:15.858Z,12.69
2018-09-13T22:54:44.389Z,12.60
2018-09-13T22:57:12.851Z,12.49
2018-09-13T22:59:41.305Z,12.14
2018-09-13T23:02:09.792Z,12.32
2018-09-13T23:04:38.193Z,12.37
2018-09-13T23:07:06.612Z,12.39
2018-09-13T23:09:35.597Z,12.40
2018-09-13T23:12:04.109Z,12.41
2018-09-13T23:14:32.569Z,12.34
2018-09-13T23:17:01.009Z,12.31
2018-09-13T23:19:29.417Z,12.28
2018-09-13T23:21:57.864Z,12.23
2018-09-13T23:24:26.242Z,12.21
2018-09-13T23:26:54.685Z,12.19
2018-09-13T23:29:23.139Z,12.24
2018-09-13T23:31:51.626Z,12.29
2018-09-13T23:34:20.068Z,12.37
2018-09-13T23:36:48.444Z,12.39
2018-09-13T23:39:16.945Z,12.39
2018-09-13T23:41:45.331Z,12.38
2018-09-13T23:44:13.830Z,12.34
2018-09-13T23:46:42.272Z,12.39
2018-09-13T23:49:10.704Z,12.45
2018-09-13T23:51:39.129Z,12.47
2018-09-13T23:54:07.597Z,12.47
2018-09-13T23:56:35.970Z,12.45
2018-09-13T23:59:04.525Z,12.31
